createdAt,value
2022-10-05T00:00:39.932Z,7.00
2022-10-05T00:03:09.937Z,7.00
2022-10-05T00:05:37.154Z,6.90
2022-10-05T00:08:23.040Z,6.90
2022-10-05T00:10:49.290Z,6.80
2022-10-05T00:13:18.941Z,6.80
2022-10-05T00:15:46.644Z,6.90
2022-10-05T00:18:15.410Z,6.90
2022-10-05T00:20:41.688Z,6.90
2022-10-05T00:23:20.090Z,6.90
2022-10-05T00:25:46.328Z,6.90
2022-10-05T00:28:28.542Z,6.80
2022-10-05T00:30:56.859Z,6.80
2022-10-05T00:33:24.754Z,6.70
2022-10-05T00:35:50.927Z,6.70
2022-10-05T00:38:17.100Z,6.70
2022-10-05T00:44:01.925Z,6.70
2022-10-05T00:46:52.205Z,6.70
2022-10-05T00:49:54.032Z,6.80
2022-10-05T00:52:51.691Z,6.80
2022-10-05T00:56:31.360Z,6.80
2022-10-05T00:59:36.388Z,6.80
2022-10-05T01:02:10.671Z,6.90
2022-10-05T01:04:53.646Z,6.90
2022-10-05T01:07:40.006Z,6.90
2022-10-05T01:10:59.121Z,7.00
2022-10-05T01:15:05.176Z,6.90
2022-10-05T01:17:49.516Z,7.00
2022-10-05T01:21:11.822Z,6.80
2022-10-05T01:28:08.864Z,6.80
2022-10-05T01:30:45.847Z,6.80
2022-10-05T01:33:21.731Z,6.80
2022-10-05T01:36:03.546Z,6.80
2022-10-05T01:38:52.956Z,6.90
2022-10-05T01:42:09.568Z,7.00
2022-10-05T01:45:02.247Z,7.00
2022-10-05T01:51:10.807Z,6.90
2022-10-05T01:54:01.766Z,7.00
2022-10-05T01:56:43.943Z,6.80
2022-10-05T01:59:49.178Z,6.60
2022-10-05T02:02:19.325Z,6.60
2022-10-05T02:06:10.998Z,6.60
2022-10-05T02:09:01.186Z,6.60
2022-10-05T02:11:27.404Z,6.60
2022-10-05T02:13:57.801Z,6.50
2022-10-05T02:16:38.335Z,6.50
2022-10-05T02:19:43.792Z,6.50
2022-10-05T02:22:21.452Z,6.50
2022-10-05T02:24:56.700Z,6.60
2022-10-05T02:27:30.583Z,6.60
2022-10-05T02:30:05.409Z,6.70
2022-10-05T02:32:40.951Z,6.70
2022-10-05T02:35:13.885Z,6.60
2022-10-05T02:39:37.720Z,6.40
2022-10-05T02:42:16.829Z,6.30
2022-10-05T02:46:50.981Z,6.40
2022-10-05T02:49:38.839Z,6.50
2022-10-05T02:57:34.489Z,6.40
2022-10-05T03:00:12.483Z,6.40
2022-10-05T03:02:45.565Z,7.20
2022-10-05T03:05:31.050Z,6.50
2022-10-05T03:08:42.077Z,6.50
2022-10-05T03:11:17.764Z,6.50
2022-10-05T03:14:12.278Z,6.50
2022-10-05T03:17:13.666Z,6.50
2022-10-05T03:22:31.210Z,6.50
2022-10-05T03:25:34.178Z,6.60
2022-10-05T03:29:45.365Z,6.60
2022-10-05T03:32:34.299Z,6.70
2022-10-05T03:37:00.007Z,6.80
2022-10-05T03:40:09.930Z,6.90
2022-10-05T03:43:00.285Z,7.10
2022-10-05T03:47:25.730Z,7.30
2022-10-05T03:50:24.360Z,7.30
2022-10-05T03:53:00.111Z,7.40
2022-10-05T03:58:10.358Z,7.50
2022-10-05T04:00:36.607Z,7.60
2022-10-05T04:03:24.361Z,7.60
2022-10-05T04:05:53.469Z,7.60
2022-10-05T04:08:48.127Z,7.60
2022-10-05T04:12:37.585Z,7.50
2022-10-05T04:16:23.194Z,7.50
2022-10-05T04:21:52.015Z,7.50
2022-10-05T04:24:41.287Z,7.50
2022-10-05T04:27:14.910Z,7.50
2022-10-05T04:30:43.871Z,7.50
2022-10-05T04:33:13.109Z,7.60
2022-10-05T04:36:09.656Z,7.60
2022-10-05T04:39:31.861Z,7.60
2022-10-05T04:42:11.532Z,7.60
2022-10-05T04:48:47.323Z,7.70
2022-10-05T04:52:17.337Z,7.70
2022-10-05T04:56:18.840Z,7.80
2022-10-05T05:00:13.467Z,7.80
2022-10-05T05:09:43.265Z,7.80
2022-10-05T05:16:02.029Z,7.80
2022-10-05T05:20:17.698Z,8.00
2022-10-05T05:23:06.240Z,8.00
2022-10-05T05:25:47.749Z,8.00
2022-10-05T05:30:19.772Z,8.10
2022-10-05T05:39:55.782Z,8.10
2022-10-05T05:42:48.153Z,8.20
2022-10-05T05:45:24.969Z,8.30
2022-10-05T05:47:53.216Z,8.30
2022-10-05T05:55:46.425Z,8.30
2022-10-05T05:58:24.785Z,8.30
2022-10-05T06:01:01.102Z,8.40
2022-10-05T06:03:53.996Z,8.40
2022-10-05T06:06:21.729Z,8.50
2022-10-05T06:08:58.422Z,8.60
2022-10-05T06:11:42.894Z,9.00
2022-10-05T06:14:30.444Z,10.20
2022-10-05T06:17:02.687Z,12.10
2022-10-05T06:19:28.971Z,12.60
2022-10-05T06:22:36.127Z,11.60
2022-10-05T06:26:37.447Z,11.50
2022-10-05T06:29:06.371Z,12.40
2022-10-05T06:36:43.837Z,12.70
2022-10-05T06:41:08.863Z,13.40
2022-10-05T06:45:27.476Z,12.80
2022-10-05T06:48:02.835Z,12.70
2022-10-05T06:50:44.543Z,12.60
2022-10-05T06:53:28.581Z,12.60
2022-10-05T06:56:13.572Z,12.50
2022-10-05T06:58:50.189Z,12.50
2022-10-05T07:01:47.847Z,13.10
2022-10-05T07:04:52.123Z,13.80
2022-10-05T07:07:57.589Z,14.20
2022-10-05T07:13:44.587Z,14.10
2022-10-05T07:20:09.210Z,13.90
2022-10-05T07:22:43.990Z,13.80
2022-10-05T07:26:42.851Z,13.70
2022-10-05T07:30:43.570Z,13.70
2022-10-05T07:33:19.090Z,13.90
2022-10-05T07:37:54.691Z,16.40
2022-10-05T07:42:08.531Z,14.60
2022-10-05T07:44:52.872Z,15.00
2022-10-05T07:49:03.204Z,15.30
2022-10-05T07:51:45.165Z,16.20
2022-10-05T07:54:40.438Z,16.60
2022-10-05T07:59:11.281Z,16.50
2022-10-05T08:01:41.087Z,17.00
2022-10-05T08:04:45.770Z,17.30
2022-10-05T08:07:13.770Z,17.60
2022-10-05T08:10:31.463Z,17.90
2022-10-05T08:14:57.058Z,18.70
2022-10-05T08:17:48.933Z,18.50
2022-10-05T08:22:11.052Z,18.50
2022-10-05T08:24:51.299Z,17.70
2022-10-05T08:27:25.854Z,17.70
2022-10-05T08:30:14.325Z,17.90
2022-10-05T08:33:12.518Z,18.00
2022-10-05T08:35:43.699Z,18.20
2022-10-05T08:38:16.029Z,18.70
2022-10-05T08:43:05.317Z,19.00
2022-10-05T08:47:27.360Z,19.30
2022-10-05T08:53:47.018Z,20.30
2022-10-05T08:57:54.992Z,20.10
2022-10-05T09:00:24.844Z,20.70
2022-10-05T09:03:37.236Z,20.90
2022-10-05T09:11:04.393Z,20.90
2022-10-05T09:18:11.706Z,21.00
2022-10-05T09:20:59.336Z,20.80
2022-10-05T09:23:39.669Z,20.70
2022-10-05T09:27:23.840Z,21.00
2022-10-05T09:33:37.948Z,21.10
2022-10-05T09:42:44.699Z,21.00
2022-10-05T09:49:03.202Z,20.90
2022-10-05T09:52:05.248Z,20.50
2022-10-05T10:01:50.457Z,20.30
2022-10-05T10:04:48.499Z,20.30
2022-10-05T10:08:54.055Z,20.30
2022-10-05T10:13:31.433Z,20.50
2022-10-05T10:16:09.341Z,20.60
2022-10-05T10:19:12.654Z,20.70
2022-10-05T10:27:03.539Z,20.80
2022-10-05T10:41:26.353Z,21.30
2022-10-05T10:44:20.638Z,22.00
2022-10-05T10:49:07.427Z,22.70
2022-10-05T10:53:45.077Z,22.30
2022-10-05T10:56:43.609Z,21.90
2022-10-05T11:00:59.294Z,21.80
2022-10-05T11:05:17.766Z,21.90
2022-10-05T11:09:28.049Z,22.20
2022-10-05T11:16:04.685Z,22.20
2022-10-05T11:23:45.555Z,22.30
2022-10-05T11:28:09.521Z,22.20
2022-10-05T11:34:29.651Z,21.70
2022-10-05T11:39:36.722Z,21.00
2022-10-05T11:43:03.786Z,21.40
2022-10-05T11:45:53.018Z,21.80
2022-10-05T11:55:27.113Z,21.90
2022-10-05T12:01:41.777Z,21.90
2022-10-05T12:11:03.595Z,22.00
2022-10-05T12:13:40.277Z,22.80
2022-10-05T12:19:17.175Z,22.10
2022-10-05T12:21:51.773Z,22.80
2022-10-05T12:25:51.647Z,22.90
2022-10-05T12:28:21.220Z,22.80
2022-10-05T12:34:05.138Z,22.60
2022-10-05T12:37:05.389Z,22.40
2022-10-05T12:43:40.768Z,22.40
2022-10-05T12:47:16.496Z,22.20
2022-10-05T12:50:13.295Z,23.10
2022-10-05T12:56:02.206Z,23.50
2022-10-05T13:00:01.291Z,23.90
2022-10-05T13:03:13.453Z,23.80
2022-10-05T13:08:50.225Z,23.70
2022-10-05T13:11:35.557Z,23.90
2022-10-05T13:14:16.267Z,23.10
2022-10-05T13:17:09.983Z,23.20
2022-10-05T13:19:44.113Z,23.20
2022-10-05T13:22:47.740Z,22.80
2022-10-05T13:25:36.804Z,22.60
2022-10-05T13:28:16.918Z,22.80
2022-10-05T13:31:08.061Z,23.00
2022-10-05T13:35:40.040Z,23.20
2022-10-05T13:41:02.689Z,23.20
2022-10-05T13:43:52.737Z,22.90
2022-10-05T13:49:58.716Z,22.60
2022-10-05T13:55:45.617Z,22.00
2022-10-05T14:00:57.117Z,21.80
2022-10-05T14:03:34.627Z,21.10
2022-10-05T14:06:09.727Z,21.00
2022-10-05T14:08:54.179Z,21.00
2022-10-05T14:11:39.586Z,19.60
2022-10-05T14:14:22.925Z,21.00
2022-10-05T14:16:59.583Z,20.90
2022-10-05T14:20:28.342Z,20.80
2022-10-05T14:23:12.282Z,20.60
2022-10-05T14:25:56.392Z,20.50
2022-10-05T14:28:34.158Z,20.60
2022-10-05T14:31:15.137Z,20.70
2022-10-05T14:33:42.811Z,20.60
2022-10-05T14:36:20.337Z,20.50
2022-10-05T14:38:58.291Z,20.40
2022-10-05T14:41:27.024Z,20.40
2022-10-05T14:44:37.927Z,20.30
2022-10-05T14:47:23.329Z,20.20
2022-10-05T14:50:15.969Z,20.10
2022-10-05T14:53:20.615Z,20.00
2022-10-05T14:59:12.987Z,19.80
2022-10-05T15:01:48.266Z,19.70
2022-10-05T15:05:02.057Z,19.60
2022-10-05T15:07:37.918Z,19.50
2022-10-05T15:15:25.405Z,19.50
2022-10-05T15:17:55.283Z,19.30
2022-10-05T15:27:30.238Z,19.30
2022-10-05T15:30:05.004Z,19.30
2022-10-05T15:32:42.391Z,19.20
2022-10-05T15:37:49.175Z,19.10
2022-10-05T15:40:30.402Z,18.90
2022-10-05T15:43:01.000Z,18.70
2022-10-05T15:45:34.961Z,18.60
2022-10-05T15:49:49.006Z,18.40
2022-10-05T15:52:40.711Z,18.20
2022-10-05T15:55:39.831Z,17.90
2022-10-05T16:01:44.206Z,17.70
2022-10-05T16:07:11.735Z,17.20
2022-10-05T16:10:23.689Z,16.80
2022-10-05T16:14:54.009Z,16.70
2022-10-05T16:17:35.291Z,16.50
2022-10-05T16:26:58.914Z,16.30
2022-10-05T16:29:45.552Z,15.80
2022-10-05T16:32:38.811Z,15.60
2022-10-05T16:36:24.088Z,15.70
2022-10-05T16:40:30.768Z,15.80
2022-10-05T16:43:28.433Z,15.80
2022-10-05T16:47:04.049Z,15.80
2022-10-05T16:50:40.763Z,15.60
2022-10-05T16:53:48.422Z,15.50
2022-10-05T16:56:19.639Z,15.40
2022-10-05T16:59:06.921Z,15.20
2022-10-05T17:01:53.694Z,15.20
2022-10-05T17:04:45.903Z,15.20
2022-10-05T17:07:39.458Z,15.00
2022-10-05T17:11:46.494Z,15.00
2022-10-05T17:14:31.481Z,15.00
2022-10-05T17:21:55.499Z,15.10
2022-10-05T17:24:34.919Z,15.00
2022-10-05T17:32:47.771Z,14.90
2022-10-05T17:35:21.507Z,14.80
2022-10-05T17:39:21.968Z,14.70
2022-10-05T17:41:48.330Z,14.70
2022-10-05T17:44:20.388Z,14.70
2022-10-05T17:46:55.717Z,14.60
2022-10-05T17:52:18.764Z,14.60
2022-10-05T17:55:14.909Z,14.60
2022-10-05T17:57:41.304Z,14.60
2022-10-05T18:07:00.159Z,14.60
2022-10-05T18:09:33.238Z,14.50
2022-10-05T18:15:08.979Z,14.50
2022-10-05T18:17:46.353Z,14.40
2022-10-05T18:20:54.131Z,14.20
2022-10-05T18:23:35.448Z,14.30
2022-10-05T18:26:23.170Z,14.20
2022-10-05T18:29:51.653Z,14.20
2022-10-05T18:32:55.557Z,14.10
2022-10-05T18:39:00.512Z,14.00
2022-10-05T18:42:02.067Z,13.90
2022-10-05T18:44:48.148Z,13.60
2022-10-05T18:47:44.867Z,13.40
2022-10-05T18:50:51.926Z,13.30
2022-10-05T18:53:36.808Z,13.10
2022-10-05T18:56:55.490Z,13.00
2022-10-05T18:59:45.907Z,12.90
2022-10-05T19:02:39.954Z,12.90
2022-10-05T19:06:50.252Z,12.80
2022-10-05T19:09:48.363Z,12.80
2022-10-05T19:13:27.896Z,12.40
2022-10-05T19:16:51.745Z,12.30
2022-10-05T19:20:55.274Z,12.20
2022-10-05T19:24:06.323Z,12.20
2022-10-05T19:28:18.837Z,12.10
2022-10-05T19:31:12.965Z,12.20
2022-10-05T19:34:40.744Z,12.40
2022-10-05T19:37:37.936Z,12.30
2022-10-05T19:40:32.114Z,12.20
2022-10-05T19:43:37.428Z,12.20
2022-10-05T19:47:01.946Z,12.20
2022-10-05T19:51:01.643Z,12.20
2022-10-05T19:53:38.750Z,12.30
2022-10-05T19:56:19.891Z,12.30
2022-10-05T19:58:46.335Z,12.30
2022-10-05T20:01:25.797Z,12.30
2022-10-05T20:03:53.305Z,12.20
2022-10-05T20:06:21.206Z,12.10
2022-10-05T20:08:50.413Z,12.10
2022-10-05T20:11:21.489Z,12.10
2022-10-05T20:19:39.591Z,12.10
2022-10-05T20:22:28.751Z,12.00
2022-10-05T20:25:34.499Z,12.00
2022-10-05T20:28:03.882Z,11.90
2022-10-05T20:30:33.952Z,11.80
2022-10-05T20:33:01.917Z,11.70
2022-10-05T20:35:30.526Z,11.60
2022-10-05T20:38:00.503Z,11.50
2022-10-05T20:40:32.668Z,11.40
2022-10-05T20:42:59.099Z,11.30
2022-10-05T20:45:26.022Z,11.20
2022-10-05T20:47:52.525Z,11.10
2022-10-05T20:50:20.437Z,11.10
2022-10-05T20:52:46.808Z,10.90
2022-10-05T20:55:14.223Z,10.90
2022-10-05T20:57:45.804Z,10.80
2022-10-05T21:00:13.234Z,10.70
2022-10-05T21:02:40.099Z,10.60
2022-10-05T21:05:07.360Z,10.60
2022-10-05T21:07:36.411Z,10.50
2022-10-05T21:10:03.917Z,10.30
2022-10-05T21:12:30.839Z,10.30
2022-10-05T21:15:03.633Z,10.20
2022-10-05T21:17:31.237Z,10.10
2022-10-05T21:19:58.018Z,10.00
2022-10-05T21:22:24.916Z,9.90
2022-10-05T21:24:51.135Z,9.70
2022-10-05T21:27:18.753Z,9.70
2022-10-05T21:29:46.124Z,9.60
2022-10-05T21:32:13.567Z,9.50
2022-10-05T21:34:40.970Z,9.50
2022-10-05T21:37:08.266Z,9.60
2022-10-05T21:39:35.853Z,9.60
2022-10-05T21:42:02.291Z,9.60
2022-10-05T21:44:28.594Z,9.60
2022-10-05T21:46:54.981Z,9.70
2022-10-05T21:49:21.298Z,9.60
2022-10-05T21:51:47.555Z,9.50
2022-10-05T21:54:15.405Z,9.60
2022-10-05T21:56:44.550Z,9.60
2022-10-05T21:59:11.280Z,9.40
2022-10-05T22:01:38.819Z,9.30
2022-10-05T22:04:05.254Z,9.10
2022-10-05T22:06:31.635Z,9.10
2022-10-05T22:08:59.165Z,9.20
2022-10-05T22:11:25.995Z,9.10
2022-10-05T22:13:52.534Z,9.00
2022-10-05T22:16:21.256Z,9.00
2022-10-05T22:18:47.955Z,9.00
2022-10-05T22:21:14.160Z,8.90
2022-10-05T22:23:41.864Z,9.00
2022-10-05T22:26:11.249Z,9.00
2022-10-05T22:28:38.718Z,8.80
2022-10-05T22:31:06.481Z,8.90
2022-10-05T22:33:34.226Z,8.80
2022-10-05T22:36:01.142Z,8.80
2022-10-05T22:38:30.549Z,8.80
2022-10-05T22:40:58.940Z,8.70
2022-10-05T22:43:28.900Z,8.60
2022-10-05T22:45:55.417Z,8.60
2022-10-05T22:48:21.820Z,8.60
2022-10-05T22:50:48.807Z,8.70
2022-10-05T22:53:16.166Z,8.70
2022-10-05T22:55:42.395Z,8.70
2022-10-05T22:58:09.195Z,8.80
2022-10-05T23:00:57.115Z,8.80
2022-10-05T23:03:24.833Z,8.90
2022-10-05T23:06:03.016Z,9.00
2022-10-05T23:08:31.642Z,9.20
2022-10-05T23:11:05.192Z,9.10
2022-10-05T23:13:31.820Z,9.10
2022-10-05T23:15:58.056Z,9.10
2022-10-05T23:18:26.115Z,9.10
2022-10-05T23:20:57.966Z,9.00
2022-10-05T23:23:25.542Z,9.10
2022-10-05T23:25:51.780Z,9.10
2022-10-05T23:28:18.055Z,9.10
2022-10-05T23:30:44.458Z,9.10
2022-10-05T23:33:11.820Z,9.10
2022-10-05T23:35:37.980Z,9.10
2022-10-05T23:38:04.238Z,9.10
2022-10-05T23:40:30.518Z,9.20
2022-10-05T23:42:56.749Z,9.30
2022-10-05T23:45:22.969Z,9.40
2022-10-05T23:47:49.224Z,9.50
2022-10-05T23:50:16.816Z,9.50
2022-10-05T23:52:43.064Z,9.60
2022-10-05T23:55:09.773Z,9.60
2022-10-05T23:57:37.547Z,9.50
